x

St Georges - 8nm Nw Of Crescent City, Ca (46027) Wave Buoy

6:50am - Thu 30th Jun 2016 All times are PDT. -7 hours from GMT.

  • Sig Wave height 8.9ft
  • Swell Direction
  • Peak Period 7s
  • Average Period 6s
  • Wind
    31mph, 38mph gusts
  • Sea Temp 48°f
  • Air Temp 53°f
  • Sea Pressure 1016.4mb
  • St Georges - 8nm Nw Of Crescent City, Ca
  • St Georges - 8nm Nw Of Crescent City, Ca

More Historic Weather Station data

Upgrade to MSW Pro to gain access to the past 30 days of data for over 8000 Wavebouys and Weather Stations around the globe.

Join Pro

Comparision Forecast

View Surf forecast
   
Thu 06/30 6:50am 9ft 7s 6s 31 38 mph 1016.4mb 48f 53f
5:50am 9ft 8s 6s 31 36 mph 1016.4mb 48f 52f
4:50am 8.5ft 7s 6s 31 36 mph 1016.3mb 48f 52f
3:50am 8.5ft 8s 6s 31 38 mph 1016.2mb 49f 52f
2:50am 9ft 7s 6s 25 31 mph 1017.1mb 48f 52f
1:50am 10ft 7s 6s 22 29 mph 1017.2mb 48f 52f
12:50am 10ft 7s 6s 27 31 mph 1017.1mb 49f 52f
Wed 06/29 11:50pm 8.5ft 7s 6s 25 31 mph 1017.4mb 49f 52f
10:50pm 8ft 7s 6s 25 29 mph 1017.5mb 49f 53f
9:50pm 9.5ft 8s 6s 29 34 mph 1017mb 49f 53f
8:50pm 9.5ft 8s 6s 29 36 mph 1016.5mb 48f 53f
7:50pm 10ft 8s 6s 31 40 mph 1016mb 48f 53f
6:50pm 12ft 8s 6s 31 38 mph 1015.9mb 48f 53f
5:50pm 10ft 8s 6s 34 43 mph 1015.4mb 48f 54f
4:50pm 10ft 8s 6s 34 43 mph 1015.6mb 49f 54f
3:50pm 9.5ft 8s 6s 34 38 mph 1016.2mb 49f 53f
2:50pm 9.5ft 8s 6s 31 36 mph 1016.7mb 50f 53f
1:50pm 8ft 8s 6s 29 36 mph 1017mb 50f 53f
12:50pm 7ft 8s 6s 27 31 mph 1017.4mb 50f 53f
11:50am 7ft 8s 6s 25 29 mph 1017.9mb 50f 53f
10:50am 6.5ft 8s 6s 20 22 mph 1018.2mb 51f 53f
9:50am 7ft 8s 6s  -  2 mph 1018.4mb 50f 53f
8:50am 6.5ft 7s 6s 4 7 mph 1018.2mb 50f 52f
7:50am 7ft 7s 6s 2 4 mph 1018mb 50f 51f
6:50am 7ft 7s 6s 2 7 mph 1018.2mb 50f 50f
5:50am 7ft 7s 6s 4
mph
1018mb 50f 50f
4:50am 6.5ft 8s 6s 4
mph
1018.2mb 50f 50f
3:50am 7ft 7s 6s 2 4 mph 1018.3mb 50f 51f
2:50am 6ft 7s 6s 4 7 mph 1018.7mb 51f 51f
12:50am 7ft 8s 7s 7 9 mph 1019.2mb 50f 52f
Tue 06/28 11:50pm 7ft 8s 6s 9 11 mph 1019mb 50f 52f
10:50pm 7.5ft 8s 6s  -  2 mph 1019.3mb 50f 52f
9:50pm 7ft 8s 6s 13 16 mph 1018.7mb 49f 52f
8:50pm 8.5ft 8s 6s 22 25 mph 1018.2mb 49f 53f
7:50pm 7ft 8s 6s 27 31 mph 1017.9mb 50f 53f
6:50pm 6.5ft 8s 6s 27 31 mph 1017.9mb 51f 54f
5:50pm 6.5ft 8s 6s 22 27 mph 1018.4mb 51f 54f
4:50pm 7ft 8s 6s 13 18 mph 1018.9mb 51f 55f
3:50pm 7ft 8s 6s 13 16 mph 1019mb 50f 54f
2:50pm 7ft 8s 6s 18 22 mph 1018.9mb 51f 53f
1:50pm 7.5ft 8s 6s 9 11 mph 1019.9mb 51f 53f
12:50pm 6.5ft 8s 6s 9 11 mph 1019.8mb 51f 52f
11:50am 6ft 8s 6s 9
mph
1019.5mb 51f 51f
10:50am 6.5ft 7s 6s 4 7 mph 1019.8mb 50f 51f
9:50am 7ft 7s 6s 7 11 mph 1020.4mb 50f 51f
8:50am 7ft 7s 6s 4 7 mph 1020.4mb 50f 50f
7:50am 6ft 8s 6s 7 9 mph 1020.3mb 50f 51f
6:50am 6.5ft 7s 6s 4 7 mph 1020.1mb 50f 51f
5:50am 6ft 7s 7s 4 7 mph 1020mb 50f 51f
4:50am 6ft 7s 6s 4 7 mph 1019.9mb 50f 52f
3:50am 6ft 7s 6s 7 9 mph 1019.9mb 50f 52f
2:50am 5ft 7s 6s 7 9 mph 1020.3mb 50f 52f
1:50am 5.5ft 7s 6s  -  4 mph 1020.3mb 50f 52f
12:50am 5ft 7s 6s 2 4 mph 1020.4mb 50f 53f
Mon 06/27 11:50pm 5ft 7s 6s 7 9 mph 1020mb 50f 52f
10:50pm 5.5ft 7s 6s 7 9 mph 1020mb 50f 51f
9:50pm 6ft 6s 5s 18 20 mph 1019.6mb 50f 52f
8:50pm 6ft 7s 5s 20 25 mph 1019.4mb 50f 53f
7:50pm 5.5ft 7s 5s 18 22 mph 1019.9mb 50f 54f
6:50pm 6ft 6s 5s 20 25 mph 1019.8mb 50f 54f
5:50pm 5.5ft 7s 5s 18 20 mph 1020.3mb 51f 54f
4:50pm 5ft 6s 5s 18 22 mph 1020.7mb 51f 54f
3:50pm 4.5ft 11s 6s 13 16 mph 1021.2mb 52f 54f
2:50pm 4.5ft 11s 6s 7 9 mph 1021.7mb 53f 53f
1:50pm 4ft 11s 6s 9
mph
1021.9mb 53f 53f
12:50pm 3.5ft 6s 6s 4 7 mph 1022mb 53f 54f
11:50am 3.5ft 7s 6s 2 4 mph 1021.9mb 53f 53f
10:50am 3.5ft 7s 6s  -  2 mph 1021.8mb 53f 53f
9:50am 3.5ft 7s 6s 2
mph
1021.9mb 52f 52f
8:50am 3.5ft 16s 6s  -  2 mph 1021.8mb 52f 52f
7:50am 3.5ft 16s 6s 2
mph
1021.6mb 52f 52f
6:50am 3.5ft 7s 6s  -  2 mph 1021.3mb 52f 52f
5:50am 3.5ft 7s 6s 2 4 mph 1021mb 52f 52f
4:50am 4ft 7s 6s 4 7 mph 1021.1mb 52f 53f
3:50am 4ft 7s 6s 2
mph
1021mb 52f 52f
2:50am 4ft 7s 6s 4
mph
1021.1mb 52f 51f
1:50am 4.5ft 7s 6s 7
mph
1021.1mb 51f 51f
12:50am 4.5ft 7s 6s 4
mph
1021mb 52f 51f
Sun 06/26 11:50pm 4.5ft 7s 6s 4
mph
1021.1mb 52f 51f
10:50pm 4.5ft 8s 6s 7
mph
1021.2mb 52f 51f
9:50pm 4.5ft 7s 6s 9 11 mph 1020.9mb 52f 52f
8:50pm 4.5ft 8s 6s 7 9 mph 1020.6mb 52f 52f
7:50pm 4.5ft 7s 6s 9 11 mph 1020.4mb 53f 53f
6:50pm 4ft 8s 6s 9 11 mph 1020.4mb 52f 52f
5:50pm 4.5ft 8s 6s 9 11 mph 1020.2mb 53f 52f
4:50pm 4.5ft 8s 6s 7 9 mph 1020mb 52f 52f
3:50pm 4.5ft 7s 6s 4 7 mph 1020mb 52f 52f
2:50pm 5ft 8s 6s 2 4 mph 1020.1mb 52f 52f